EPWR

Copernicus Wrocław Airport

Wrocław, Poland
METAR EPWR 181030Z 32011KT 290V360 CAVOK 23/14 Q1019
Observed Flight Rules
Jun-18 @ 10:30 UTC (38 minutes ago) Visual Flight Rules
Wind Visibility Clouds
320° at 11 knots 10,000+ meters
  • Clear skies
Temperatures Readings
Current 23°C / 73°F
Dewpoint 14°C / 57°F
Humidity 57%
Altimeter 30.09" Hg
Pressure 1019 hPa
Elevation 121
METAR EPWR 181030Z 32011KT 290V360 CAVOK 23/14 Q1019
Observed Flight Rules
Jun-18 @ 10:30 UTC
(38 minutes ago)
VFR
Wind Visibility
320° at 11 knots 10,000+ meters
Clouds
  • Clear skies
Temperature Dewpoint
23°C / 73°F 14°C / 57°F
Humidity Altimeter Pressure
57% 30.09" Hg 1019 hPa